createdAt,value
2023-01-19T00:00:31.634Z,96128.84
2023-01-19T00:02:34.228Z,96127.97
2023-01-19T00:04:36.794Z,96129.72
2023-01-19T00:06:39.399Z,96137.41
2023-01-19T00:08:44.715Z,96139.97
2023-01-19T00:10:50.964Z,96139.16
2023-01-19T00:12:53.517Z,96135.78
2023-01-19T00:14:56.116Z,96129.00
2023-01-19T00:16:58.888Z,96135.81
2023-01-19T00:19:01.440Z,96134.91
2023-01-19T00:21:03.995Z,96135.72
2023-01-19T00:23:07.959Z,96132.31
2023-01-19T00:25:12.179Z,96140.78
2023-01-19T00:27:14.730Z,96139.13
2023-01-19T00:29:17.298Z,96144.22
2023-01-19T00:31:21.762Z,96144.34
2023-01-19T00:33:24.494Z,96140.94
2023-01-19T00:35:27.167Z,96151.19
2023-01-19T00:37:29.694Z,96152.16
2023-01-19T00:39:32.293Z,96156.34
2023-01-19T00:41:54.112Z,96154.72
2023-01-19T00:43:56.695Z,96152.97
2023-01-19T00:45:59.253Z,96152.97
2023-01-19T00:48:02.045Z,96148.78
2023-01-19T00:50:05.407Z,96153.03
2023-01-19T00:52:07.995Z,96157.25
2023-01-19T00:54:10.591Z,96149.59
2023-01-19T00:56:13.147Z,96153.09
2023-01-19T00:58:17.059Z,96153.94
2023-01-19T01:00:21.092Z,96152.25
2023-01-19T01:02:23.821Z,96158.22
2023-01-19T01:04:26.449Z,96153.13
2023-01-19T01:06:29.069Z,96153.16
2023-01-19T01:08:31.719Z,96154.94
2023-01-19T01:10:34.269Z,96149.75
2023-01-19T01:12:36.959Z,96156.59
2023-01-19T01:14:41.105Z,96160.03
2023-01-19T01:16:43.739Z,96159.19
2023-01-19T01:18:46.283Z,96162.63
2023-01-19T01:20:48.988Z,96161.75
2023-01-19T01:22:53.636Z,96166.00
2023-01-19T01:24:56.290Z,96164.34
2023-01-19T01:26:58.894Z,96160.97
2023-01-19T01:29:01.425Z,96165.22
2023-01-19T01:31:05.666Z,96163.53
2023-01-19T01:33:08.503Z,96166.13
2023-01-19T01:35:12.123Z,96161.06
2023-01-19T01:37:14.676Z,96158.53
2023-01-19T01:39:17.231Z,96161.09
2023-01-19T01:41:21.878Z,96162.81
2023-01-19T01:43:43.939Z,96158.59
2023-01-19T01:45:47.734Z,96162.84
2023-01-19T01:47:52.971Z,96168.84
2023-01-19T01:50:03.312Z,96171.41
2023-01-19T01:52:05.953Z,96180.81
2023-01-19T01:54:16.775Z,96179.09
2023-01-19T01:56:25.575Z,96174.81
2023-01-19T01:58:28.502Z,96176.56
2023-01-19T02:00:52.676Z,96175.66
2023-01-19T02:02:55.782Z,96173.16
2023-01-19T02:05:04.092Z,96177.28
2023-01-19T02:07:24.277Z,96178.19
2023-01-19T02:09:47.361Z,96170.53
2023-01-19T02:12:07.808Z,96173.09
2023-01-19T02:14:10.371Z,96180.75
2023-01-19T02:16:13.404Z,96180.75
2023-01-19T02:18:17.619Z,96178.13
2023-01-19T02:20:24.428Z,96167.84
2023-01-19T02:22:35.965Z,96178.94
2023-01-19T02:24:39.900Z,96176.41
2023-01-19T02:26:47.066Z,96175.53
2023-01-19T02:28:54.948Z,96177.28
2023-01-19T02:30:57.828Z,96182.38
2023-01-19T02:33:01.304Z,96182.44
2023-01-19T02:35:04.188Z,96179.00
2023-01-19T02:37:11.345Z,96177.31
2023-01-19T02:39:16.548Z,96178.16
2023-01-19T02:41:23.793Z,96182.44
2023-01-19T02:43:28.717Z,96186.72
2023-01-19T02:45:33.014Z,96191.00
2023-01-19T02:47:39.817Z,96191.03
2023-01-19T02:49:42.811Z,96197.00
2023-01-19T02:51:45.517Z,96197.00
2023-01-19T02:54:06.223Z,96195.38
2023-01-19T02:56:39.563Z,96191.06
2023-01-19T02:58:48.965Z,96182.59
2023-01-19T03:01:01.593Z,96186.81
2023-01-19T03:03:21.014Z,96181.69
2023-01-19T03:05:34.501Z,96191.91
2023-01-19T03:07:50.371Z,96187.69
2023-01-19T03:10:00.156Z,96193.66
2023-01-19T03:12:10.211Z,96194.50
2023-01-19T03:14:18.138Z,96192.78
2023-01-19T03:16:23.585Z,96192.81
2023-01-19T03:18:30.140Z,96195.34
2023-01-19T03:20:33.241Z,96193.66
2023-01-19T03:22:36.087Z,96195.38
2023-01-19T03:24:43.263Z,96196.22
2023-01-19T03:26:50.453Z,96195.38
2023-01-19T03:28:53.418Z,96203.03
2023-01-19T03:31:03.119Z,96206.47
2023-01-19T03:33:09.561Z,96209.03
2023-01-19T03:35:15.508Z,96206.44
2023-01-19T03:37:21.341Z,96211.59
2023-01-19T03:39:25.658Z,96204.75
2023-01-19T03:41:30.673Z,96209.03
2023-01-19T03:43:35.802Z,96207.31
2023-01-19T03:45:40.047Z,96213.31
2023-01-19T03:47:45.032Z,96209.06
2023-01-19T03:49:50.725Z,96210.78
2023-01-19T03:51:56.604Z,96211.66
2023-01-19T03:54:01.285Z,96208.22
2023-01-19T03:56:04.017Z,96208.22
2023-01-19T03:58:06.907Z,96212.47
2023-01-19T04:00:10.900Z,96205.63
2023-01-19T04:02:13.612Z,96200.50
2023-01-19T04:04:17.559Z,96197.94
2023-01-19T04:06:21.445Z,96198.75
2023-01-19T04:08:23.995Z,96194.47
2023-01-19T04:10:26.548Z,96201.28
2023-01-19T04:12:29.124Z,96201.28
2023-01-19T04:14:32.077Z,96200.41
2023-01-19T04:16:34.664Z,96206.38
2023-01-19T04:18:37.280Z,96204.66
2023-01-19T04:20:41.226Z,96212.28
2023-01-19T04:22:43.832Z,96209.72
2023-01-19T04:24:46.414Z,96209.72
2023-01-19T04:26:48.961Z,96218.22
2023-01-19T04:28:51.504Z,96214.00
2023-01-19T04:30:54.680Z,96218.28
2023-01-19T04:33:00.130Z,96220.84
2023-01-19T04:35:02.880Z,96214.88
2023-01-19T04:37:08.406Z,96219.19
2023-01-19T04:39:11.695Z,96217.50
2023-01-19T04:41:14.250Z,96220.03
2023-01-19T04:43:16.980Z,96218.31
2023-01-19T04:45:19.589Z,96217.44
2023-01-19T04:47:22.221Z,96208.94
2023-01-19T04:49:24.935Z,96216.63
2023-01-19T04:51:28.661Z,96214.16
2023-01-19T04:53:32.780Z,96220.09
2023-01-19T04:55:35.453Z,96223.50
2023-01-19T04:57:38.027Z,96218.38
2023-01-19T04:59:40.609Z,96220.09
2023-01-19T05:01:43.389Z,96222.66
2023-01-19T05:03:46.189Z,96226.91
2023-01-19T05:05:48.749Z,96227.69
2023-01-19T05:07:51.260Z,96231.97
2023-01-19T05:09:55.261Z,96231.94
2023-01-19T05:11:57.807Z,96226.91
2023-01-19T05:14:00.403Z,96222.66
2023-01-19T05:16:03.251Z,96226.88
2023-01-19T05:18:05.902Z,96226.06
2023-01-19T05:20:11.253Z,96232.00
2023-01-19T05:22:13.953Z,96237.09
2023-01-19T05:24:16.487Z,96235.38
2023-01-19T05:26:20.392Z,96239.63
2023-01-19T05:28:23.097Z,96239.63
2023-01-19T05:30:25.703Z,96243.94
2023-01-19T05:32:28.277Z,96245.59
2023-01-19T05:34:30.879Z,96243.03
2023-01-19T05:36:33.534Z,96240.47
2023-01-19T05:38:36.302Z,96244.75
2023-01-19T05:40:38.878Z,96241.28
2023-01-19T05:42:42.738Z,96240.38
2023-01-19T05:44:45.330Z,96245.50
2023-01-19T05:46:48.134Z,96248.13
2023-01-19T05:48:50.755Z,96253.25
2023-01-19T05:50:58.586Z,96247.34
2023-01-19T05:53:01.798Z,96246.50
2023-01-19T05:55:04.901Z,96252.44
2023-01-19T05:57:07.702Z,96258.47
2023-01-19T05:59:12.457Z,96269.59
2023-01-19T06:01:15.052Z,96261.91
2023-01-19T06:03:17.699Z,96264.44
2023-01-19T06:05:20.436Z,96269.59
2023-01-19T06:07:24.375Z,96269.56
2023-01-19T06:09:27.704Z,96273.00
2023-01-19T06:11:30.330Z,96273.00
2023-01-19T06:13:32.905Z,96272.16
2023-01-19T06:15:37.495Z,96273.84
2023-01-19T06:17:40.031Z,96284.97
2023-01-19T06:19:42.856Z,96273.00
2023-01-19T06:21:49.648Z,96285.78
2023-01-19T06:23:52.256Z,96274.72
2023-01-19T06:25:54.880Z,96267.97
2023-01-19T06:27:57.500Z,96278.94
2023-01-19T06:30:00.093Z,96282.38
2023-01-19T06:32:04.187Z,96279.84
2023-01-19T06:34:06.897Z,96280.69
2023-01-19T06:36:09.966Z,96285.03
2023-01-19T06:38:13.422Z,96291.84
2023-01-19T06:40:16.239Z,96290.16
2023-01-19T06:42:18.791Z,96292.69
2023-01-19T06:44:21.356Z,96287.56
2023-01-19T06:46:23.950Z,96292.69
2023-01-19T06:48:28.061Z,96292.63
2023-01-19T06:50:30.704Z,96294.41
2023-01-19T06:52:33.271Z,96300.41
2023-01-19T06:54:35.827Z,96296.16
2023-01-19T06:56:38.383Z,96298.72
2023-01-19T06:58:42.598Z,96302.94
2023-01-19T07:00:45.210Z,96299.53
2023-01-19T07:02:47.942Z,96302.09
2023-01-19T07:04:51.865Z,96298.69
2023-01-19T07:06:54.805Z,96297.84
2023-01-19T07:08:57.829Z,96300.41
2023-01-19T07:11:24.922Z,96297.81
2023-01-19T07:13:24.631Z,96301.22
2023-01-19T07:15:27.218Z,96297.00
2023-01-19T07:17:29.772Z,96302.97
2023-01-19T07:19:34.802Z,96301.22
2023-01-19T07:21:38.741Z,96299.53
2023-01-19T07:23:41.285Z,96314.06
2023-01-19T07:25:46.154Z,96313.16
2023-01-19T07:27:48.741Z,96317.41
2023-01-19T07:29:51.271Z,96320.00
2023-01-19T07:31:54.944Z,96321.72
2023-01-19T07:33:57.924Z,96324.28
2023-01-19T07:36:00.461Z,96326.81
2023-01-19T07:38:04.872Z,96328.50
2023-01-19T07:40:08.359Z,96324.25
2023-01-19T07:42:11.027Z,96328.50
2023-01-19T07:44:13.660Z,96335.31
2023-01-19T07:46:16.301Z,96331.06
2023-01-19T07:48:18.924Z,96337.03
2023-01-19T07:50:24.483Z,96331.09
2023-01-19T07:52:27.059Z,96325.13
2023-01-19T07:54:31.038Z,96327.69
2023-01-19T07:56:33.881Z,96325.97
2023-01-19T07:58:36.790Z,96331.97
2023-01-19T08:00:39.662Z,96332.78
2023-01-19T08:02:42.263Z,96326.84
2023-01-19T08:04:44.902Z,96328.53
2023-01-19T08:06:51.453Z,96333.66
2023-01-19T08:08:54.043Z,96335.34
2023-01-19T08:10:57.979Z,96342.16
2023-01-19T08:13:00.808Z,96337.91
2023-01-19T08:15:03.624Z,96339.59
2023-01-19T08:17:06.180Z,96344.66
2023-01-19T08:19:08.928Z,96341.25
2023-01-19T08:21:11.471Z,96348.91
2023-01-19T08:23:14.317Z,96348.91
2023-01-19T08:25:17.120Z,96346.31
2023-01-19T08:27:20.997Z,96350.56
2023-01-19T08:29:23.585Z,96346.31
2023-01-19T08:31:27.458Z,96357.41
2023-01-19T08:33:30.101Z,96356.53
2023-01-19T08:35:32.864Z,96348.03
2023-01-19T08:37:35.456Z,96354.00
2023-01-19T08:39:37.997Z,96354.84
2023-01-19T08:41:40.569Z,96353.13
2023-01-19T08:43:45.371Z,96358.25
2023-01-19T08:45:52.732Z,96347.13
2023-01-19T08:47:56.392Z,96352.25
2023-01-19T08:49:58.919Z,96359.91
2023-01-19T08:52:03.044Z,96360.75
2023-01-19T08:54:06.126Z,96356.50
2023-01-19T08:56:12.401Z,96361.53
2023-01-19T08:58:14.962Z,96364.13
2023-01-19T09:00:19.872Z,96364.97
2023-01-19T09:02:22.519Z,96366.69
2023-01-19T09:04:25.596Z,96364.03
2023-01-19T09:06:28.421Z,96358.97
2023-01-19T09:08:31.058Z,96366.63
2023-01-19T09:10:36.006Z,96369.19
2023-01-19T09:12:38.627Z,96374.28
2023-01-19T09:14:41.256Z,96372.56
2023-01-19T09:16:45.169Z,96383.66
2023-01-19T09:18:47.726Z,96380.25
2023-01-19T09:20:51.356Z,96393.88
2023-01-19T09:22:56.224Z,96393.84
2023-01-19T09:24:58.797Z,96387.81
2023-01-19T09:27:01.377Z,96385.28
2023-01-19T09:29:03.948Z,96390.34
2023-01-19T09:31:07.923Z,96397.16
2023-01-19T09:33:13.409Z,96387.78
2023-01-19T09:35:16.408Z,96386.03
2023-01-19T09:37:18.979Z,96391.16
2023-01-19T09:39:21.561Z,96390.25
2023-01-19T09:41:26.163Z,96390.22
2023-01-19T09:43:39.665Z,96392.72
2023-01-19T09:45:49.992Z,96389.28
2023-01-19T09:47:53.396Z,96389.22
2023-01-19T09:50:02.462Z,96389.19
2023-01-19T09:52:05.050Z,96384.88
2023-01-19T09:54:14.437Z,96379.69
2023-01-19T09:56:19.987Z,96375.28
2023-01-19T09:58:23.808Z,96373.56
2023-01-19T10:00:29.674Z,96371.81
2023-01-19T10:02:37.905Z,96372.59
2023-01-19T10:04:42.422Z,96367.41
2023-01-19T10:06:48.629Z,96361.47
2023-01-19T10:09:03.486Z,96366.56
2023-01-19T10:11:18.362Z,96358.84
2023-01-19T10:13:32.793Z,96357.94
2023-01-19T10:15:47.225Z,96367.25
2023-01-19T10:18:04.315Z,96371.50
2023-01-19T10:20:17.901Z,96376.44
2023-01-19T10:22:23.792Z,96369.59
2023-01-19T10:24:29.215Z,96368.84
2023-01-19T10:26:34.579Z,96365.38
2023-01-19T10:28:39.170Z,96368.00
2023-01-19T10:30:45.084Z,96368.75
2023-01-19T10:32:47.961Z,96364.56
2023-01-19T10:34:52.464Z,96368.03
2023-01-19T10:37:03.584Z,96369.56
2023-01-19T10:39:09.161Z,96368.84
2023-01-19T10:41:18.271Z,96366.31
2023-01-19T10:43:37.898Z,96361.09
2023-01-19T10:45:40.563Z,96366.16
2023-01-19T10:47:45.284Z,96359.41
2023-01-19T10:49:48.996Z,96356.91
2023-01-19T10:51:51.645Z,96359.44
2023-01-19T10:54:00.875Z,96362.88
2023-01-19T10:56:17.789Z,96362.00
2023-01-19T10:58:30.921Z,96358.41
2023-01-19T11:00:37.716Z,96358.50
2023-01-19T11:02:51.622Z,96358.50
2023-01-19T11:04:56.945Z,96349.88
2023-01-19T11:07:15.284Z,96352.47
2023-01-19T11:09:20.070Z,96351.59
2023-01-19T11:11:25.613Z,96354.91
2023-01-19T11:13:28.197Z,96360.13
2023-01-19T11:15:33.859Z,96360.09
2023-01-19T11:17:36.818Z,96353.22
2023-01-19T11:19:39.406Z,96354.03
2023-01-19T11:21:42.044Z,96359.97
2023-01-19T11:23:50.978Z,96353.97
2023-01-19T11:25:55.833Z,96353.97
2023-01-19T11:27:59.862Z,96354.78
2023-01-19T11:30:10.304Z,96358.19
2023-01-19T11:32:21.980Z,96355.59
2023-01-19T11:34:31.202Z,96355.59
2023-01-19T11:36:35.931Z,96352.06
2023-01-19T11:38:43.441Z,96347.91
2023-01-19T11:40:53.776Z,96339.28
2023-01-19T11:42:56.339Z,96343.59
2023-01-19T11:45:08.616Z,96341.84
2023-01-19T11:47:17.266Z,96347.69
2023-01-19T11:49:26.983Z,96344.25
2023-01-19T11:51:36.095Z,96336.59
2023-01-19T11:53:38.713Z,96335.72
2023-01-19T11:55:48.478Z,96338.28
2023-01-19T11:57:54.390Z,96336.34
2023-01-19T12:00:03.337Z,96326.25
2023-01-19T12:02:19.937Z,96333.78
2023-01-19T12:04:28.869Z,96332.19
2023-01-19T12:06:34.647Z,96329.66
2023-01-19T12:08:41.998Z,96332.09
2023-01-19T12:10:48.103Z,96326.13
2023-01-19T12:12:52.211Z,96325.94
2023-01-19T12:14:58.993Z,96323.34
2023-01-19T12:17:06.572Z,96326.72
2023-01-19T12:19:17.509Z,96329.22
2023-01-19T12:21:20.838Z,96326.63
2023-01-19T12:23:31.592Z,96327.44
2023-01-19T12:25:46.608Z,96343.53
2023-01-19T12:27:51.012Z,96335.59
2023-01-19T12:29:55.529Z,96338.41
2023-01-19T12:32:21.116Z,96337.53
2023-01-19T12:34:41.480Z,96334.72
2023-01-19T12:36:44.066Z,96333.94
2023-01-19T12:38:53.473Z,96338.25
2023-01-19T12:41:17.402Z,96337.41
2023-01-19T12:43:20.357Z,96339.94
2023-01-19T12:45:25.648Z,96339.09
2023-01-19T12:47:28.239Z,96335.81
2023-01-19T12:49:35.598Z,96342.75
2023-01-19T12:51:38.274Z,96341.78
2023-01-19T12:53:41.684Z,96338.41
2023-01-19T12:55:46.590Z,96343.50
2023-01-19T12:57:55.176Z,96342.69
2023-01-19T12:59:59.823Z,96342.56
2023-01-19T13:02:51.233Z,96333.97
2023-01-19T13:05:14.375Z,96333.06
2023-01-19T13:07:18.074Z,96339.13
2023-01-19T13:09:30.877Z,96336.63
2023-01-19T13:11:34.677Z,96336.47
2023-01-19T13:13:38.688Z,96337.50
2023-01-19T13:15:41.448Z,96340.06
2023-01-19T13:17:50.996Z,96338.34
2023-01-19T13:19:59.801Z,96339.84
2023-01-19T13:22:42.175Z,96339.91
2023-01-19T13:24:59.615Z,96339.09
2023-01-19T13:27:04.809Z,96338.09
2023-01-19T13:29:09.455Z,96336.25
2023-01-19T13:31:13.945Z,96332.63
2023-01-19T13:33:21.929Z,96335.22
2023-01-19T13:35:25.326Z,96337.81
2023-01-19T13:37:34.746Z,96337.03
2023-01-19T13:39:41.405Z,96331.91
2023-01-19T13:41:45.461Z,96342.22
2023-01-19T13:43:52.939Z,96332.63
2023-01-19T13:45:56.848Z,96341.97
2023-01-19T13:48:01.846Z,96346.47
2023-01-19T13:50:04.827Z,96343.91
2023-01-19T13:52:13.916Z,96348.09
2023-01-19T13:54:17.808Z,96340.56
2023-01-19T13:56:23.304Z,96341.41
2023-01-19T13:58:26.165Z,96340.56
2023-01-19T14:00:31.319Z,96340.56
2023-01-19T14:02:34.132Z,96351.03
2023-01-19T14:04:36.763Z,96341.25
2023-01-19T14:06:45.584Z,96335.78
2023-01-19T14:08:48.150Z,96344.72
2023-01-19T14:11:02.925Z,96349.13
2023-01-19T14:13:07.217Z,96339.72
2023-01-19T14:15:14.151Z,96355.13
2023-01-19T14:17:27.147Z,96352.44
2023-01-19T14:19:29.761Z,96343.75
2023-01-19T14:21:40.419Z,96344.81
2023-01-19T14:23:47.133Z,96345.50
2023-01-19T14:25:49.747Z,96343.13
2023-01-19T14:27:52.490Z,96343.16
2023-01-19T14:29:55.077Z,96348.34
2023-01-19T14:32:13.634Z,96342.53
2023-01-19T14:34:35.328Z,96343.31
2023-01-19T14:36:40.250Z,96341.44
2023-01-19T14:38:44.819Z,96344.16
2023-01-19T14:40:47.613Z,96337.41
2023-01-19T14:42:53.546Z,96345.19
2023-01-19T14:44:58.138Z,96345.97
2023-01-19T14:47:01.427Z,96343.41
2023-01-19T14:49:06.984Z,96340.91
2023-01-19T14:51:19.353Z,96340.06
2023-01-19T14:53:25.613Z,96336.56
2023-01-19T14:55:34.900Z,96342.53
2023-01-19T14:57:37.882Z,96336.53
2023-01-19T14:59:48.280Z,96339.16
2023-01-19T15:01:50.903Z,96332.25
2023-01-19T15:03:53.505Z,96338.22
2023-01-19T15:05:57.308Z,96337.34
2023-01-19T15:08:03.222Z,96337.28
2023-01-19T15:10:11.595Z,96337.34
2023-01-19T15:12:17.551Z,96339.13
2023-01-19T15:14:25.014Z,96334.75
2023-01-19T15:16:29.900Z,96334.75
2023-01-19T15:18:32.554Z,96332.06
2023-01-19T15:20:35.192Z,96337.31
2023-01-19T15:22:37.720Z,96331.31
2023-01-19T15:24:41.650Z,96343.34
2023-01-19T15:26:44.406Z,96333.88
2023-01-19T15:28:48.762Z,96337.31
2023-01-19T15:30:53.687Z,96336.47
2023-01-19T15:32:56.314Z,96339.09
2023-01-19T15:34:58.875Z,96336.56
2023-01-19T15:37:01.419Z,96329.69
2023-01-19T15:39:04.013Z,96336.50
2023-01-19T15:41:14.000Z,96340.81
2023-01-19T15:43:16.651Z,96343.38
2023-01-19T15:45:32.306Z,96339.09
2023-01-19T15:47:34.979Z,96340.81
2023-01-19T15:49:37.768Z,96342.47
2023-01-19T15:51:40.302Z,96339.03
2023-01-19T15:53:43.439Z,96339.13
2023-01-19T15:55:49.904Z,96339.13
2023-01-19T15:57:53.780Z,96336.50
2023-01-19T15:59:56.363Z,96342.53
2023-01-19T16:01:59.010Z,96331.38
2023-01-19T16:04:05.798Z,96335.63
2023-01-19T16:06:08.892Z,96339.09
2023-01-19T16:08:11.969Z,96337.41
2023-01-19T16:10:16.842Z,96331.38
2023-01-19T16:12:19.429Z,96339.06
2023-01-19T16:14:23.331Z,96329.69
2023-01-19T16:16:28.136Z,96329.69
2023-01-19T16:18:30.839Z,96333.97
2023-01-19T16:20:33.686Z,96332.22
2023-01-19T16:22:36.741Z,96338.28
2023-01-19T16:24:39.364Z,96333.16
2023-01-19T16:26:41.979Z,96335.75
2023-01-19T16:28:44.502Z,96334.09
2023-01-19T16:30:49.437Z,96337.50
2023-01-19T16:32:52.008Z,96345.19
2023-01-19T16:34:54.624Z,96338.28
2023-01-19T16:36:57.188Z,96332.34
2023-01-19T16:39:00.679Z,96338.31
2023-01-19T16:41:03.243Z,96346.06
2023-01-19T16:43:05.878Z,96345.19
2023-01-19T16:45:09.185Z,96341.78
2023-01-19T16:47:13.111Z,96340.97
2023-01-19T16:49:17.745Z,96340.13
2023-01-19T16:51:20.540Z,96346.91
2023-01-19T16:53:23.135Z,96342.72
2023-01-19T16:55:25.693Z,96344.38
2023-01-19T16:57:28.241Z,96337.63
2023-01-19T16:59:30.865Z,96347.03
2023-01-19T17:01:33.624Z,96343.59
2023-01-19T17:03:38.409Z,96341.91
2023-01-19T17:05:41.127Z,96344.47
2023-01-19T17:07:44.432Z,96345.31
2023-01-19T17:09:46.951Z,96351.25
2023-01-19T17:11:49.542Z,96344.34
2023-01-19T17:13:55.073Z,96340.97
2023-01-19T17:16:00.592Z,96342.75
2023-01-19T17:18:03.189Z,96344.44
2023-01-19T17:20:08.584Z,96346.16
2023-01-19T17:22:11.853Z,96343.59
2023-01-19T17:24:14.465Z,96340.19
2023-01-19T17:26:18.523Z,96335.09
2023-01-19T17:28:21.303Z,96338.59
2023-01-19T17:30:23.915Z,96342.03
2023-01-19T17:32:26.518Z,96342.94
2023-01-19T17:34:29.067Z,96340.34
2023-01-19T17:36:34.165Z,96348.06
2023-01-19T17:38:37.303Z,96334.34
2023-01-19T17:40:40.576Z,96350.59
2023-01-19T17:42:43.170Z,96342.88
2023-01-19T17:44:45.752Z,96353.13
2023-01-19T17:46:48.552Z,96348.84
2023-01-19T17:48:54.786Z,96346.22
2023-01-19T17:51:02.718Z,96345.31
2023-01-19T17:53:06.867Z,96349.59
2023-01-19T17:55:10.457Z,96342.75
2023-01-19T17:57:13.035Z,96346.16
2023-01-19T17:59:15.585Z,96352.22
2023-01-19T18:01:20.363Z,96346.22
2023-01-19T18:03:23.010Z,96345.34
2023-01-19T18:05:25.615Z,96350.44
2023-01-19T18:07:28.934Z,96346.91
2023-01-19T18:09:32.889Z,96355.53
2023-01-19T18:11:36.113Z,96346.09
2023-01-19T18:13:39.508Z,96344.38
2023-01-19T18:15:42.039Z,96341.78
2023-01-19T18:17:44.624Z,96346.16
2023-01-19T18:19:47.229Z,96352.97
2023-01-19T18:21:50.929Z,96347.81
2023-01-19T18:23:53.511Z,96346.09
2023-01-19T18:26:01.222Z,96352.06
2023-01-19T18:28:05.385Z,96350.41
2023-01-19T18:30:12.166Z,96348.72
2023-01-19T18:32:14.985Z,96347.91
2023-01-19T18:34:17.619Z,96349.63
2023-01-19T18:36:20.309Z,96355.59
2023-01-19T18:38:22.926Z,96353.03
2023-01-19T18:40:25.654Z,96341.91
2023-01-19T18:42:29.702Z,96354.78
2023-01-19T18:44:32.231Z,96356.47
2023-01-19T18:46:34.913Z,96346.25
2023-01-19T18:48:38.195Z,96350.47
2023-01-19T18:50:40.787Z,96348.84
2023-01-19T18:52:43.378Z,96343.72
2023-01-19T18:54:45.901Z,96356.53
2023-01-19T18:56:50.967Z,96355.72
2023-01-19T18:58:57.912Z,96353.16
2023-01-19T19:01:01.780Z,96353.16
2023-01-19T19:03:07.211Z,96349.75
2023-01-19T19:05:10.124Z,96356.59
2023-01-19T19:07:12.674Z,96346.38
2023-01-19T19:09:15.272Z,96347.22
2023-01-19T19:11:18.560Z,96351.56
2023-01-19T19:13:21.857Z,96354.97
2023-01-19T19:15:27.080Z,96360.09
2023-01-19T19:17:29.624Z,96355.78
2023-01-19T19:19:32.211Z,96356.63
2023-01-19T19:21:34.846Z,96354.91
2023-01-19T19:23:38.262Z,96365.19
2023-01-19T19:25:40.819Z,96364.34
2023-01-19T19:27:45.370Z,96369.44
2023-01-19T19:29:48.699Z,96368.59
2023-01-19T19:31:52.689Z,96370.31
2023-01-19T19:33:58.145Z,96366.88
2023-01-19T19:36:01.023Z,96372.91
2023-01-19T19:38:04.388Z,96368.63
2023-01-19T19:40:07.964Z,96370.34
2023-01-19T19:42:10.531Z,96375.53
2023-01-19T19:44:13.558Z,96377.19
2023-01-19T19:46:17.736Z,96372.94
2023-01-19T19:48:21.741Z,96372.09
2023-01-19T19:50:24.301Z,96374.66
2023-01-19T19:52:27.616Z,96376.38
2023-01-19T19:54:30.141Z,96377.22
2023-01-19T19:56:34.312Z,96372.94
2023-01-19T19:58:38.697Z,96377.25
2023-01-19T20:00:44.025Z,96378.94
2023-01-19T20:02:46.569Z,96378.97
2023-01-19T20:04:50.652Z,96372.13
2023-01-19T20:06:53.214Z,96381.66
2023-01-19T20:08:56.992Z,96377.44
2023-01-19T20:11:06.287Z,96374.06
2023-01-19T20:13:09.317Z,96377.59
2023-01-19T20:15:12.559Z,96382.75
2023-01-19T20:17:15.117Z,96376.75
2023-01-19T20:19:18.818Z,96380.22
2023-01-19T20:21:25.045Z,96377.66
2023-01-19T20:23:27.711Z,96385.31
2023-01-19T20:25:30.438Z,96379.34
2023-01-19T20:27:33.048Z,96390.44
2023-01-19T20:29:35.643Z,96380.19
2023-01-19T20:31:39.922Z,96382.72
2023-01-19T20:33:43.146Z,96392.19
2023-01-19T20:35:45.686Z,96388.75
2023-01-19T20:37:49.623Z,96387.91
2023-01-19T20:39:52.468Z,96391.38
2023-01-19T20:41:57.522Z,96392.22
2023-01-19T20:44:00.066Z,96387.16
2023-01-19T20:46:03.239Z,96394.84
2023-01-19T20:48:06.409Z,96393.16
2023-01-19T20:50:10.280Z,96398.25
2023-01-19T20:52:12.847Z,96394.09
2023-01-19T20:54:19.071Z,96388.94
2023-01-19T20:56:21.843Z,96394.91
2023-01-19T20:58:24.647Z,96392.34
2023-01-19T21:00:27.191Z,96395.84
2023-01-19T21:02:29.795Z,96398.44
2023-01-19T21:04:32.389Z,96406.19
2023-01-19T21:06:35.096Z,96410.41
2023-01-19T21:08:38.239Z,96404.50
2023-01-19T21:10:42.459Z,96400.06
2023-01-19T21:12:45.630Z,96402.66
2023-01-19T21:14:48.228Z,96405.31
2023-01-19T21:16:52.302Z,96406.19
2023-01-19T21:18:55.795Z,96408.81
2023-01-19T21:20:58.865Z,96410.56
2023-01-19T21:23:01.434Z,96414.00
2023-01-19T21:25:04.116Z,96413.06
2023-01-19T21:27:08.002Z,96411.34
2023-01-19T21:29:13.133Z,96411.31
2023-01-19T21:31:15.795Z,96413.91
2023-01-19T21:33:19.178Z,96421.66
2023-01-19T21:35:21.734Z,96413.94
2023-01-19T21:37:24.272Z,96412.25
2023-01-19T21:39:26.874Z,96419.09
2023-01-19T21:41:30.864Z,96415.69
2023-01-19T21:43:37.164Z,96415.56
2023-01-19T21:45:41.599Z,96417.31
2023-01-19T21:47:45.452Z,96414.81
2023-01-19T21:49:48.020Z,96411.41
2023-01-19T21:51:51.155Z,96415.69
2023-01-19T21:53:56.018Z,96415.72
2023-01-19T21:56:00.303Z,96416.59
2023-01-19T21:58:02.966Z,96414.00
2023-01-19T22:00:10.198Z,96419.09
2023-01-19T22:02:14.006Z,96419.94
2023-01-19T22:04:16.621Z,96419.91
2023-01-19T22:06:19.207Z,96422.47
2023-01-19T22:08:21.832Z,96426.75
2023-01-19T22:10:24.381Z,96433.53
2023-01-19T22:12:26.999Z,96437.78
2023-01-19T22:14:29.781Z,96433.53
2023-01-19T22:16:33.822Z,96436.06
2023-01-19T22:18:36.858Z,96436.91
2023-01-19T22:20:39.428Z,96435.16
2023-01-19T22:22:41.987Z,96436.84
2023-01-19T22:24:46.606Z,96441.94
2023-01-19T22:26:49.213Z,96438.53
2023-01-19T22:28:54.767Z,96442.75
2023-01-19T22:31:03.475Z,96441.03
2023-01-19T22:33:07.434Z,96445.28
2023-01-19T22:35:10.406Z,96451.28
2023-01-19T22:37:12.947Z,96447.00
2023-01-19T22:39:16.229Z,96448.69
2023-01-19T22:41:21.118Z,96452.13
2023-01-19T22:43:23.702Z,96447.88
2023-01-19T22:45:26.281Z,96447.88
2023-01-19T22:47:28.823Z,96450.47
2023-01-19T22:49:32.735Z,96447.94
2023-01-19T22:51:36.200Z,96452.28
2023-01-19T22:53:38.810Z,96450.59
2023-01-19T22:55:41.339Z,96459.19
2023-01-19T22:57:43.892Z,96455.00
2023-01-19T22:59:46.457Z,96450.72
2023-01-19T23:01:50.411Z,96455.91
2023-01-19T23:03:54.093Z,96458.53
2023-01-19T23:05:58.038Z,96454.31
2023-01-19T23:08:00.605Z,96457.78
2023-01-19T23:10:06.214Z,96457.81
2023-01-19T23:12:08.781Z,96463.84
2023-01-19T23:14:15.888Z,96466.41
2023-01-19T23:16:19.208Z,96463.84
2023-01-19T23:18:21.775Z,96467.31
2023-01-19T23:20:24.307Z,96472.44
2023-01-19T23:22:28.211Z,96462.22
2023-01-19T23:24:30.835Z,96466.53
2023-01-19T23:26:37.994Z,96471.69
2023-01-19T23:28:41.065Z,96465.78
2023-01-19T23:30:43.650Z,96467.53
2023-01-19T23:32:50.139Z,96476.06
2023-01-19T23:34:52.819Z,96472.69
2023-01-19T23:36:57.442Z,96472.72
2023-01-19T23:39:03.201Z,96474.47
2023-01-19T23:41:06.333Z,96477.91
2023-01-19T23:43:08.918Z,96477.09
2023-01-19T23:45:12.165Z,96483.09
2023-01-19T23:47:15.166Z,96486.53
2023-01-19T23:49:18.104Z,96489.94
2023-01-19T23:51:22.869Z,96492.53
2023-01-19T23:53:25.950Z,96488.28
2023-01-19T23:55:29.887Z,96498.50
2023-01-19T23:57:32.444Z,96499.38
2023-01-19T23:59:35.037Z,96503.69
